Time,TemperatureF,DewpointF,PressureIn,WindDirection,WindDirectionDegrees,WindSpeedMPH,WindSpeedGustMPH,Humidity,HourlyPrecipIn,Conditions,Clouds,dailyrainin,SoftwareType,DateUTC
2013-01-24 00:09:00,34.8,18.0,29.92,SSW,207,3.0,-999.0,50,-99.99,,,0.00,weatherlink.com 1.10,2013-01-24 07:09:00,
2013-01-24 00:24:00,34.6,18.0,29.91,SSW,199,4.0,-999.0,52,-99.99,,,0.00,weatherlink.com 1.10,2013-01-24 07:24:00,
2013-01-24 00:39:00,34.4,18.0,29.90,South,188,4.0,-999.0,52,-99.99,,,0.00,weatherlink.com 1.10,2013-01-24 07:39:00,
2013-01-24 00:54:00,35.8,18.0,29.91,SSW,211,5.0,-999.0,48,-99.99,,,0.00,weatherlink.com 1.10,2013-01-24 07:54:00,
2013-01-24 01:09:00,34.6,18.0,29.91,SSW,194,3.0,-999.0,51,-99.99,,,0.00,weatherlink.com 1.10,2013-01-24 08:09:00,
2013-01-24 01:24:00,33.8,19.0,29.90,SSE,165,3.0,-999.0,56,-99.99,,,0.00,weatherlink.com 1.10,2013-01-24 08:24:00,
2013-01-24 01:39:00,32.7,19.0,29.90,SSE,163,1.0,-999.0,57,-99.99,,,0.00,weatherlink.com 1.10,2013-01-24 08:39:00,
2013-01-24 01:54:00,34.0,19.0,29.90,South,171,1.0,-999.0,54,-99.99,,,0.00,weatherlink.com 1.10,2013-01-24 08:54:00,
2013-01-24 02:09:00,33.3,18.0,29.90,South,171,1.0,-999.0,54,-99.99,,,0.00,weatherlink.com 1.10,2013-01-24 09:09:00,
2013-01-24 02:24:00,33.0,18.0,29.90,South,173,3.0,-999.0,54,-99.99,,,0.00,weatherlink.com 1.10,2013-01-24 09:24:00,
2013-01-24 02:39:00,35.5,17.0,29.90,South,176,1.0,-999.0,47,-99.99,,,0.00,weatherlink.com 1.10,2013-01-24 09:39:00,
2013-01-24 02:54:00,35.3,18.0,29.89,South,176,0.0,-999.0,50,-99.99,,,0.00,weatherlink.com 1.10,2013-01-24 09:54:00,
2013-01-24 03:09:00,34.6,18.0,29.89,South,176,0.0,-999.0,52,-99.99,,,0.00,weatherlink.com 1.10,2013-01-24 10:09:00,
2013-01-24 03:24:00,34.4,17.0,29.88,South,176,0.0,-999.0,50,-99.99,,,0.00,weatherlink.com 1.10,2013-01-24 10:24:00,
2013-01-24 03:39:00,34.4,17.0,29.88,South,176,0.0,-999.0,50,-99.99,,,0.00,weatherlink.com 1.10,2013-01-24 10:39:00,
2013-01-24 03:54:00,34.5,17.0,29.87,South,176,0.0,-999.0,50,-99.99,,,0.00,weatherlink.com 1.10,2013-01-24 10:54:00,
2013-01-24 04:09:00,35.4,17.0,29.85,South,176,0.0,-999.0,47,-99.99,,,0.00,weatherlink.com 1.10,2013-01-24 11:09:00,
2013-01-24 04:24:00,36.8,19.0,29.84,South,179,3.0,-999.0,49,-99.99,,,0.00,weatherlink.com 1.10,2013-01-24 11:24:00,
2013-01-24 04:39:00,38.2,19.0,29.84,South,185,1.0,-999.0,47,-99.99,,,0.00,weatherlink.com 1.10,2013-01-24 11:39:00,
2013-01-24 04:54:00,36.9,20.0,29.84,South,185,0.0,-999.0,50,-99.99,,,0.00,weatherlink.com 1.10,2013-01-24 11:54:00,
2013-01-24 05:09:00,35.0,20.0,29.83,South,185,0.0,-999.0,55,-99.99,,,0.00,weatherlink.com 1.10,2013-01-24 12:09:00,
2013-01-24 05:24:00,33.8,20.0,29.84,South,185,0.0,-999.0,58,-99.99,,,0.00,weatherlink.com 1.10,2013-01-24 12:24:00,
2013-01-24 05:39:00,35.3,21.0,29.84,South,185,0.0,-999.0,56,-99.99,,,0.00,weatherlink.com 1.10,2013-01-24 12:39:00,
2013-01-24 05:54:00,36.1,23.0,29.84,South,185,1.0,-999.0,60,-99.99,,,0.00,weatherlink.com 1.10,2013-01-24 12:54:00,
2013-01-24 06:09:00,38.2,26.0,29.84,South,176,2.0,-999.0,62,-99.99,,,0.00,weatherlink.com 1.10,2013-01-24 13:09:00,
2013-01-24 06:24:00,38.4,26.0,29.84,South,176,0.0,-999.0,62,-99.99,,,0.00,weatherlink.com 1.10,2013-01-24 13:24:00,
2013-01-24 06:39:00,37.8,25.0,29.84,South,178,3.0,-999.0,61,-99.99,,,0.00,weatherlink.com 1.10,2013-01-24 13:39:00,
2013-01-24 06:54:00,38.4,26.0,29.84,SW,223,7.0,-999.0,61,-99.99,,,0.00,weatherlink.com 1.10,2013-01-24 13:54:00,
2013-01-24 07:09:00,38.1,26.0,29.83,SW,218,5.0,-999.0,62,-99.99,,,0.00,weatherlink.com 1.10,2013-01-24 14:09:00,
2013-01-24 07:24:00,37.2,27.0,29.84,SSW,200,5.0,-999.0,67,-99.99,,,0.00,weatherlink.com 1.10,2013-01-24 14:24:00,
2013-01-24 07:39:00,36.3,27.0,29.83,SW,223,6.0,-999.0,70,-99.99,,,0.00,weatherlink.com 1.10,2013-01-24 14:39:00,
2013-01-24 07:54:00,36.7,27.0,29.84,SSW,213,15.0,-999.0,67,-99.99,,,0.00,weatherlink.com 1.10,2013-01-24 14:54:00,
2013-01-24 08:09:00,36.2,26.0,29.84,SSW,211,8.0,-999.0,67,-99.99,,,0.00,weatherlink.com 1.10,2013-01-24 15:09:00,
2013-01-24 08:24:00,35.8,27.0,29.84,SW,234,11.0,-999.0,69,-99.99,,,0.00,weatherlink.com 1.10,2013-01-24 15:24:00,
2013-01-24 08:39:00,34.9,27.0,29.84,SSW,213,9.0,-999.0,73,-99.99,,,0.00,weatherlink.com 1.10,2013-01-24 15:39:00,
2013-01-24 08:54:00,33.7,28.0,29.84,SSW,205,14.0,-999.0,79,-99.99,,,0.00,weatherlink.com 1.10,2013-01-24 15:54:00,
2013-01-24 09:09:00,32.5,28.0,29.84,SSW,201,4.0,-999.0,84,-99.99,,,0.00,weatherlink.com 1.10,2013-01-24 16:09:00,
2013-01-24 09:24:00,31.9,28.0,29.83,SSW,202,5.0,-999.0,86,-99.99,,,0.00,weatherlink.com 1.10,2013-01-24 16:24:00,
2013-01-24 09:39:00,31.8,28.0,29.83,SSW,201,2.0,-999.0,87,-99.99,,,0.00,weatherlink.com 1.10,2013-01-24 16:39:00,
2013-01-24 09:54:00,31.8,29.0,29.82,SSW,201,2.0,-999.0,88,-99.99,,,0.00,weatherlink.com 1.10,2013-01-24 16:54:00,
2013-01-24 10:09:00,32.2,29.0,29.82,SSW,201,3.0,-999.0,88,-99.99,,,0.01,weatherlink.com 1.10,2013-01-24 17:09:00,
2013-01-24 10:24:00,32.5,29.0,29.82,South,188,5.0,-999.0,86,-99.99,,,0.01,weatherlink.com 1.10,2013-01-24 17:24:00,
2013-01-24 10:39:00,32.7,29.0,29.82,SSW,196,4.0,-999.0,85,-99.99,,,0.01,weatherlink.com 1.10,2013-01-24 17:39:00,
2013-01-24 10:54:00,33.2,29.0,29.82,SSW,192,5.0,-999.0,85,-99.99,,,0.01,weatherlink.com 1.10,2013-01-24 17:54:00,
2013-01-24 11:09:00,33.7,29.0,29.81,SSW,192,6.0,-999.0,84,-99.99,,,0.01,weatherlink.com 1.10,2013-01-24 18:09:00,
2013-01-24 11:24:00,33.4,29.0,29.81,SSW,209,5.0,-999.0,85,-99.99,,,0.01,weatherlink.com 1.10,2013-01-24 18:24:00,
2013-01-24 11:39:00,33.5,30.0,29.82,SSW,213,3.0,-999.0,85,-99.99,,,0.01,weatherlink.com 1.10,2013-01-24 18:39:00,
2013-01-24 11:54:00,33.6,30.0,29.81,SSW,213,3.0,-999.0,85,-99.99,,,0.01,weatherlink.com 1.10,2013-01-24 18:54:00,
2013-01-24 12:09:00,33.8,31.0,29.81,SSW,213,4.0,-999.0,88,-99.99,,,0.01,weatherlink.com 1.10,2013-01-24 19:09:00,
2013-01-24 12:24:00,34.0,28.0,29.80,SSW,211,7.0,-999.0,80,-99.99,,,0.01,weatherlink.com 1.10,2013-01-24 19:24:00,
2013-01-24 12:39:00,34.1,29.0,29.80,SSW,199,11.0,-999.0,80,-99.99,,,0.01,weatherlink.com 1.10,2013-01-24 19:39:00,
2013-01-24 12:54:00,34.4,28.0,29.80,SW,217,10.0,-999.0,78,-99.99,,,0.01,weatherlink.com 1.10,2013-01-24 19:54:00,
2013-01-24 13:09:00,34.4,28.0,29.81,SSW,211,12.0,-999.0,78,-99.99,,,0.01,weatherlink.com 1.10,2013-01-24 20:09:00,
2013-01-24 13:24:00,34.2,28.0,29.80,SSW,203,13.0,-999.0,79,-99.99,,,0.01,weatherlink.com 1.10,2013-01-24 20:24:00,
2013-01-24 13:39:00,34.1,28.0,29.80,SSW,203,4.0,-999.0,79,-99.99,,,0.01,weatherlink.com 1.10,2013-01-24 20:39:00,
2013-01-24 13:54:00,34.5,29.0,29.80,SSW,197,0.0,-999.0,79,-99.99,,,0.01,weatherlink.com 1.10,2013-01-24 20:54:00,
2013-01-24 14:09:00,34.4,29.0,29.80,South,188,1.0,-999.0,80,-99.99,,,0.01,weatherlink.com 1.10,2013-01-24 21:09:00,
2013-01-24 14:24:00,34.1,29.0,29.79,South,190,3.0,-999.0,80,-99.99,,,0.01,weatherlink.com 1.10,2013-01-24 21:24:00,
2013-01-24 14:39:00,34.4,29.0,29.80,South,190,1.0,-999.0,80,-99.99,,,0.01,weatherlink.com 1.10,2013-01-24 21:39:00,
2013-01-24 14:54:00,34.4,29.0,29.82,SSW,194,4.0,-999.0,79,-99.99,,,0.01,weatherlink.com 1.10,2013-01-24 21:54:00,
2013-01-24 15:09:00,34.9,29.0,29.81,SSW,200,5.0,-999.0,78,-99.99,,,0.01,weatherlink.com 1.10,2013-01-24 22:09:00,
2013-01-24 15:24:00,35.1,29.0,29.81,SSW,192,1.0,-999.0,78,-99.99,,,0.01,weatherlink.com 1.10,2013-01-24 22:24:00,
2013-01-24 15:39:00,34.8,29.0,29.81,South,186,4.0,-999.0,79,-99.99,,,0.01,weatherlink.com 1.10,2013-01-24 22:39:00,
2013-01-24 15:54:00,34.9,29.0,29.82,South,186,1.0,-999.0,80,-99.99,,,0.01,weatherlink.com 1.10,2013-01-24 22:54:00,
2013-01-24 16:09:00,35.0,29.0,29.82,South,186,1.0,-999.0,79,-99.99,,,0.01,weatherlink.com 1.10,2013-01-24 23:09:00,
2013-01-24 16:24:00,34.9,29.0,29.82,South,185,2.0,-999.0,79,-99.99,,,0.01,weatherlink.com 1.10,2013-01-24 23:24:00,
2013-01-24 16:39:00,34.9,29.0,29.83,South,183,2.0,-999.0,79,-99.99,,,0.01,weatherlink.com 1.10,2013-01-24 23:39:00,
2013-01-24 16:54:00,34.6,29.0,29.82,South,184,5.0,-999.0,80,-99.99,,,0.01,weatherlink.com 1.10,2013-01-24 23:54:00,
2013-01-24 17:09:00,34.3,29.0,29.83,SW,214,3.0,-999.0,82,-99.99,,,0.01,weatherlink.com 1.10,2013-01-25 00:09:00,
2013-01-24 17:24:00,34.0,29.0,29.83,SW,214,2.0,-999.0,83,-99.99,,,0.01,weatherlink.com 1.10,2013-01-25 00:24:00,
2013-01-24 17:39:00,34.0,29.0,29.83,SSW,212,3.0,-999.0,83,-99.99,,,0.01,weatherlink.com 1.10,2013-01-25 00:39:00,
2013-01-24 17:54:00,34.1,30.0,29.83,SSE,157,4.0,-999.0,83,-99.99,,,0.01,weatherlink.com 1.10,2013-01-25 00:54:00,
2013-01-24 18:09:00,33.5,30.0,29.83,SSE,157,1.0,-999.0,85,-99.99,,,0.01,weatherlink.com 1.10,2013-01-25 01:09:00,
2013-01-24 18:24:00,33.8,29.0,29.83,SE,143,2.0,-999.0,83,-99.99,,,0.01,weatherlink.com 1.10,2013-01-25 01:24:00,
2013-01-24 18:39:00,34.3,29.0,29.84,ESE,123,1.0,-999.0,82,-99.99,,,0.01,weatherlink.com 1.10,2013-01-25 01:39:00,
2013-01-24 18:54:00,34.2,29.0,29.84,ESE,123,2.0,-999.0,81,-99.99,,,0.01,weatherlink.com 1.10,2013-01-25 01:54:00,
2013-01-24 19:09:00,34.3,29.0,29.84,SW,216,4.0,-999.0,81,-99.99,,,0.01,weatherlink.com 1.10,2013-01-25 02:09:00,
2013-01-24 19:39:00,33.9,28.0,29.84,SSW,200,0.0,-999.0,80,-99.99,,,0.01,weatherlink.com 1.10,2013-01-25 02:39:00,
2013-01-24 19:55:00,33.6,28.0,29.84,SSW,200,2.0,-999.0,80,-99.99,,,0.01,weatherlink.com 1.10,2013-01-25 02:55:00,
2013-01-24 20:10:00,33.1,28.0,29.84,South,183,3.0,-999.0,82,-99.99,,,0.01,weatherlink.com 1.10,2013-01-25 03:10:00,
2013-01-24 20:24:00,33.3,28.0,29.84,South,179,2.0,-999.0,81,-99.99,,,0.01,weatherlink.com 1.10,2013-01-25 03:24:00,
2013-01-24 20:41:00,33.9,28.0,29.85,SSW,210,10.0,-999.0,80,-99.99,,,0.01,weatherlink.com 1.10,2013-01-25 03:41:00,
2013-01-24 20:55:00,34.0,28.0,29.86,SSW,208,1.0,-999.0,79,-99.99,,,0.01,weatherlink.com 1.10,2013-01-25 03:55:00,
2013-01-24 21:09:00,33.8,28.0,29.86,SSW,207,3.0,-999.0,79,-99.99,,,0.01,weatherlink.com 1.10,2013-01-25 04:09:00,
2013-01-24 21:25:00,33.7,28.0,29.86,South,190,6.0,-999.0,78,-99.99,,,0.01,weatherlink.com 1.10,2013-01-25 04:25:00,
2013-01-24 21:40:00,33.7,27.0,29.87,SSW,197,4.0,-999.0,77,-99.99,,,0.01,weatherlink.com 1.10,2013-01-25 04:40:00,
2013-01-24 21:55:00,33.9,27.0,29.87,South,189,4.0,-999.0,75,-99.99,,,0.01,weatherlink.com 1.10,2013-01-25 04:55:00,
2013-01-24 22:11:00,34.1,27.0,29.87,South,189,0.0,-999.0,75,-99.99,,,0.01,weatherlink.com 1.10,2013-01-25 05:11:00,
2013-01-24 22:25:00,33.6,27.0,29.88,South,189,0.0,-999.0,76,-99.99,,,0.01,weatherlink.com 1.10,2013-01-25 05:25:00,
2013-01-24 22:39:00,33.4,27.0,29.88,South,189,0.0,-999.0,76,-99.99,,,0.01,weatherlink.com 1.10,2013-01-25 05:39:00,
2013-01-24 22:56:00,33.3,27.0,29.88,South,189,2.0,-999.0,77,-99.99,,,0.01,weatherlink.com 1.10,2013-01-25 05:56:00,
2013-01-24 23:11:00,33.5,27.0,29.87,South,188,2.0,-999.0,77,-99.99,,,0.01,weatherlink.com 1.10,2013-01-25 06:11:00,
2013-01-24 23:25:00,33.5,27.0,29.87,South,181,3.0,-999.0,78,-99.99,,,0.01,weatherlink.com 1.10,2013-01-25 06:25:00,
2013-01-24 23:39:00,33.7,28.0,29.87,South,184,3.0,-999.0,78,-99.99,,,0.01,weatherlink.com 1.10,2013-01-25 06:39:00,
2013-01-24 23:55:00,33.7,28.0,29.87,South,175,4.0,-999.0,78,-99.99,,,0.01,weatherlink.com 1.10,2013-01-25 06:55:00,